Time;durP1;ratioP1;P1;durP2;ratioP2;P2;SDS_P1;SDS_P2;PMS_P1;PMS_P2;Temp;Humidity;BMP_temperature;BMP_pressure;BME280_temperature;BME280_humidity;BME280_pressure;Samples;Min_cycle;Max_cycle;Signal;HPM_P1;HPM_P2
2022/06/18 00:00:00;;;;;;;11.60;8.80;;;;;;;14.91;91.59;97889.81;10488739;28;20078;-58
2022/06/18 00:04:59;;;;;;;16.65;10.10;;;;;;;14.88;92.27;97892.47;10499619;28;20031;-58
2022/06/18 00:10:04;;;;;;;13.80;8.95;;;;;;;14.79;92.94;97877.81;10500171;28;20027;-58
2022/06/18 00:15:12;;;;;;;11.65;9.32;;;;;;;14.82;92.83;97876.88;10500068;28;20059;-58
2022/06/18 00:20:13;;;;;;;15.45;9.15;;;;;;;14.87;92.57;97880.28;10498356;28;20024;-57
2022/06/18 00:25:34;;;;;;;14.73;9.48;;;;;;;14.71;92.98;97864.00;10499629;28;20051;-58
2022/06/18 00:30:33;;;;;;;13.95;9.88;;;;;;;14.77;92.73;97866.50;10499561;28;20047;-58
2022/06/18 00:35:32;;;;;;;;;;;;;;;14.73;92.97;97869.19;10500116;28;20020;-58
2022/06/18 00:40:36;;;;;;;14.75;10.38;;;;;;;14.63;93.44;97871.06;10498336;28;19958;-58
2022/06/18 00:45:35;;;;;;;16.75;10.50;;;;;;;14.62;93.22;97858.91;10499274;28;20058;-58
2022/06/18 00:50:38;;;;;;;;;;;;;;;14.60;93.44;97868.50;10496713;28;20027;-57
2022/06/18 00:55:54;;;;;;;14.88;10.40;;;;;;;14.60;92.92;97871.97;10495298;28;19943;-58
2022/06/18 01:00:55;;;;;;;16.45;10.90;;;;;;;14.52;93.22;97867.75;10481186;28;20058;-58
2022/06/18 01:05:57;;;;;;;17.80;11.55;;;;;;;14.56;93.41;97875.50;10498126;28;20055;-58
2022/06/18 01:11:02;;;;;;;15.77;11.40;;;;;;;14.50;93.14;97859.06;10504398;28;20062;-58
2022/06/18 01:16:04;;;;;;;15.13;10.88;;;;;;;14.42;93.84;97846.13;10502482;28;20200;-58
2022/06/18 01:21:27;;;;;;;13.80;9.88;;;;;;;14.51;93.50;97848.59;10503027;28;20446;-58
2022/06/18 01:26:27;;;;;;;15.43;9.90;;;;;;;14.37;94.38;97842.72;10492014;28;20078;-58
2022/06/18 01:31:26;;;;;;;21.02;10.45;;;;;;;14.40;94.37;97856.63;10502911;28;20083;-58
2022/06/18 01:36:29;;;;;;;17.42;10.20;;;;;;;14.29;94.65;97866.34;10498898;28;20505;-57
2022/06/18 01:41:52;;;;;;;13.05;9.13;;;;;;;14.12;95.40;97869.16;10502772;28;20054;-58
2022/06/18 01:46:53;;;;;;;15.18;10.55;;;;;;;14.04;95.98;97876.25;10503271;28;20066;-58
2022/06/18 01:51:55;;;;;;;16.13;10.70;;;;;;;13.96;96.19;97871.13;10499440;28;20525;-58
2022/06/18 01:56:59;;;;;;;18.02;10.48;;;;;;;13.91;96.24;97882.50;10498568;28;20070;-58
2022/06/18 02:02:00;;;;;;;16.95;11.43;;;;;;;13.94;96.18;97875.50;10502506;28;20478;-58
2022/06/18 02:06:59;;;;;;;15.40;11.30;;;;;;;14.01;95.90;97875.41;10501556;28;20116;-58
2022/06/18 02:12:00;;;;;;;;;;;;;;;14.09;95.52;97876.19;10501923;28;20137;-58
2022/06/18 02:17:03;;;;;;;15.88;10.60;;;;;;;14.17;95.37;97882.16;10501541;28;19950;-58
2022/06/18 02:22:04;;;;;;;17.77;11.50;;;;;;;14.21;95.62;97886.44;10501828;28;20058;-58
2022/06/18 02:27:04;;;;;;;16.17;11.85;;;;;;;14.27;95.43;97891.59;10502129;28;20055;-58
2022/06/18 02:32:07;;;;;;;22.52;11.45;;;;;;;14.13;95.86;97881.34;10499649;28;20071;-58
2022/06/18 02:37:17;;;;;;;17.48;10.63;;;;;;;13.92;96.55;97871.19;10500865;28;20066;-58
2022/06/18 02:42:16;;;;;;;15.65;10.73;;;;;;;13.84;96.79;97883.44;10500014;28;20066;-58
2022/06/18 02:47:17;;;;;;;16.70;10.25;;;;;;;13.77;96.41;97877.44;10499789;28;20055;-58
2022/06/18 02:52:16;;;;;;;16.10;11.43;;;;;;;13.76;96.41;97891.38;10483834;28;20060;-58
2022/06/18 02:57:23;;;;;;;15.07;11.40;;;;;;;13.72;96.47;97893.13;10469165;28;20091;-58
2022/06/18 03:02:22;;;;;;;16.25;12.18;;;;;;;13.70;96.87;97891.44;10496881;28;20464;-58
2022/06/18 03:07:21;;;;;;;18.65;11.85;;;;;;;13.74;96.83;97903.56;10501422;28;20829;-58
2022/06/18 03:12:20;;;;;;;18.20;12.43;;;;;;;13.69;97.56;97901.00;10503326;28;20031;-58
2022/06/18 03:17:19;;;;;;;;;;;;;;;13.72;97.46;97906.19;10502739;28;20046;-58
2022/06/18 03:22:20;;;;;;;20.67;12.65;;;;;;;13.73;97.76;97907.06;10503014;28;19916;-58
2022/06/18 03:27:19;;;;;;;14.85;11.55;;;;;;;13.88;97.68;97909.47;10501683;28;20066;-58
2022/06/18 03:32:18;;;;;;;18.50;11.75;;;;;;;13.98;97.65;97921.56;10501155;28;20047;-57
2022/06/18 03:37:17;;;;;;;;;;;;;;;13.88;96.69;97922.53;10502814;28;20055;-58
2022/06/18 03:42:16;;;;;;;18.10;10.10;;;;;;;13.94;96.52;97919.00;10502225;28;20003;-58
2022/06/18 03:47:15;;;;;;;15.27;10.25;;;;;;;13.97;96.07;97927.63;10493846;28;20032;-58
2022/06/18 03:52:14;;;;;;;15.52;10.05;;;;;;;13.98;95.97;97929.38;10455516;28;20039;-58
2022/06/18 03:57:18;;;;;;;15.93;10.70;;;;;;;14.11;95.43;97922.25;10456044;28;20066;-58
2022/06/18 04:02:17;;;;;;;14.00;9.88;;;;;;;14.20;94.64;97921.28;10490735;28;20051;-58
2022/06/18 04:07:20;;;;;;;17.77;10.43;;;;;;;14.28;95.09;97929.84;10496681;28;20561;-58
2022/06/18 04:12:20;;;;;;;15.70;9.55;;;;;;;14.36;94.68;97916.72;10497500;28;20074;-57
2022/06/18 04:17:19;;;;;;;14.23;9.13;;;;;;;14.58;94.24;97932.94;10498056;28;20089;-57
2022/06/18 04:22:18;;;;;;;13.57;9.30;;;;;;;14.69;93.61;97925.81;10497320;28;20030;-58
2022/06/18 04:27:17;;;;;;;;;;;;;;;14.75;92.82;97930.97;10495782;28;20035;-58
2022/06/18 04:32:16;;;;;;;13.52;9.07;;;;;;;14.70;92.72;97919.75;10496146;28;20322;-57
2022/06/18 04:37:15;;;;;;;16.20;9.77;;;;;;;14.70;92.73;97924.97;10497566;28;20034;-57
2022/06/18 04:42:14;;;;;;;;;;;;;;;14.77;93.71;97936.19;10501582;28;20048;-57
2022/06/18 04:47:12;;;;;;;13.90;9.93;;;;;;;14.95;93.43;97928.06;10501583;28;20396;-57
2022/06/18 04:52:11;;;;;;;13.00;10.35;;;;;;;15.17;92.54;97936.41;10500370;28;20028;-58
2022/06/18 04:57:10;;;;;;;;;;;;;;;15.47;91.89;97931.56;10506002;28;20042;-58
2022/06/18 05:02:19;;;;;;;14.52;10.13;;;;;;;15.79;91.22;97914.44;10503014;28;20040;-58
2022/06/18 05:07:18;;;;;;;13.57;9.87;;;;;;;16.10;90.24;97930.41;10504654;28;20051;-58
2022/06/18 05:12:16;;;;;;;;;;;;;;;16.52;87.99;97940.84;10503919;28;20034;-58
2022/06/18 05:17:21;;;;;;;13.23;9.52;;;;;;;16.80;86.68;97948.09;10504460;28;19907;-58
2022/06/18 05:22:20;;;;;;;11.63;8.80;;;;;;;17.03;85.85;97935.34;10503024;28;20450;-58
2022/06/18 05:27:22;;;;;;;12.15;9.90;;;;;;;17.40;85.66;97941.44;10504245;28;20078;-58
2022/06/18 05:32:21;;;;;;;11.88;8.60;;;;;;;17.50;84.05;97941.16;10504107;28;20079;-58
2022/06/18 05:37:24;;;;;;;12.20;9.13;;;;;;;17.49;84.13;97946.44;10503707;28;20059;-58
2022/06/18 05:42:23;;;;;;;13.57;9.32;;;;;;;17.21;85.08;97960.25;10499810;28;20058;-58
2022/06/18 05:47:26;;;;;;;13.73;9.23;;;;;;;17.12;85.54;97958.72;10485494;28;20470;-58
2022/06/18 05:52:27;;;;;;;13.82;9.73;;;;;;;17.31;85.76;97961.75;10459531;28;20063;-58
2022/06/18 05:57:26;;;;;;;12.57;9.48;;;;;;;17.62;85.20;97966.22;10476732;28;20071;-58
2022/06/18 06:02:25;;;;;;;12.45;9.15;;;;;;;17.91;84.15;97967.25;10496638;28;20031;-58
2022/06/18 06:07:24;;;;;;;12.48;9.23;;;;;;;18.16;83.36;97964.81;10502524;28;20405;-57
2022/06/18 06:12:23;;;;;;;9.45;7.53;;;;;;;18.38;81.17;97968.53;10501411;28;20054;-58
2022/06/18 06:17:24;;;;;;;10.57;7.20;;;;;;;18.73;80.45;97973.69;10499760;28;20074;-58
2022/06/18 06:22:24;;;;;;;6.72;4.72;;;;;;;18.93;73.73;97954.69;10499954;28;20051;-58
2022/06/18 06:27:23;;;;;;;7.45;4.68;;;;;;;18.93;71.63;97913.47;10500216;28;20055;-59
2022/06/18 06:32:22;;;;;;;7.00;5.03;;;;;;;19.53;71.35;97953.56;10500269;28;20522;-58
2022/06/18 06:37:21;;;;;;;6.57;5.35;;;;;;;19.52;69.13;97941.34;10499435;28;20062;-58
2022/06/18 06:42:20;;;;;;;6.43;4.60;;;;;;;19.83;68.22;97945.56;10490516;28;20050;-59
2022/06/18 06:47:19;;;;;;;6.72;4.50;;;;;;;20.03;65.99;97945.72;10474962;28;20028;-58
2022/06/18 06:52:18;;;;;;;6.93;4.80;;;;;;;20.26;65.70;97968.59;10500526;28;20715;-59
2022/06/18 06:57:23;;;;;;;6.35;5.28;;;;;;;20.39;65.38;97945.28;10499026;28;20094;-59
2022/06/18 07:02:22;;;;;;;7.65;5.55;;;;;;;20.64;63.38;97950.50;10496494;28;20837;-58
2022/06/18 07:07:21;;;;;;;7.53;4.80;;;;;;;20.98;61.92;97957.09;10499629;28;20055;-59
2022/06/18 07:12:20;;;;;;;6.93;4.45;;;;;;;21.16;59.86;97963.41;10499811;28;20106;-58
2022/06/18 07:17:19;;;;;;;9.27;4.80;;;;;;;21.20;60.08;97961.53;10491095;28;20038;-59
2022/06/18 07:22:18;;;;;;;5.90;4.50;;;;;;;21.04;58.16;97962.13;10497141;28;20162;-59
2022/06/18 07:27:18;;;;;;;5.57;4.50;;;;;;;21.16;58.67;97963.41;10511450;27;20058;-59
2022/06/18 07:32:20;;;;;;;7.50;4.63;;;;;;;21.18;58.04;97960.72;10539155;27;20075;-58
2022/06/18 07:37:19;;;;;;;6.60;4.22;;;;;;;21.36;58.72;97970.56;10508519;27;20062;-59
2022/06/18 07:42:20;;;;;;;7.32;5.03;;;;;;;21.09;57.79;97969.88;10456422;28;20055;-59
2022/06/18 07:47:20;;;;;;;6.47;5.43;;;;;;;21.27;58.81;97978.84;10457754;28;20066;-58
2022/06/18 07:52:19;;;;;;;8.68;5.88;;;;;;;21.50;61.23;97970.84;10460362;28;20467;-59
2022/06/18 07:57:17;;;;;;;9.93;5.80;;;;;;;21.93;59.25;97966.38;10463680;28;20110;-59
2022/06/18 08:02:18;;;;;;;8.85;6.28;;;;;;;21.95;59.21;97966.31;10501543;28;20530;-58
2022/06/18 08:07:17;;;;;;;8.82;5.80;;;;;;;22.08;59.79;97967.50;10501432;28;20034;-59
2022/06/18 08:12:16;;;;;;;7.68;5.93;;;;;;;22.23;60.39;97965.13;10481713;28;20028;-59
2022/06/18 08:17:15;;;;;;;7.10;5.82;;;;;;;22.02;59.10;97964.28;10484753;28;20474;-59
2022/06/18 08:22:14;;;;;;;6.25;5.43;;;;;;;22.11;57.17;97961.25;10464824;28;20822;-59
2022/06/18 08:27:14;;;;;;;7.22;6.45;;;;;;;22.15;58.76;97960.16;10457635;28;20494;-59
2022/06/18 08:32:13;;;;;;;7.35;5.93;;;;;;;22.06;60.31;97968.50;10457455;28;20072;-58
2022/06/18 08:37:12;;;;;;;7.10;6.05;;;;;;;22.21;59.65;97978.41;10456262;28;20063;-59
2022/06/18 08:42:20;;;;;;;8.15;6.80;;;;;;;22.04;58.97;97962.41;10457164;28;20044;-58
2022/06/18 08:47:34;;;;;;;9.13;7.23;;;;;;;22.25;59.72;97966.78;10457423;28;20088;-59
2022/06/18 08:52:36;;;;;;;11.00;7.80;;;;;;;22.35;60.20;97973.34;10455256;28;20071;-59
2022/06/18 08:58:12;;;;;;;9.43;7.43;;;;;;;22.18;60.15;97982.03;10454687;28;20062;-59
2022/06/18 09:03:11;;;;;;;11.15;8.68;;;;;;;22.04;60.85;97970.34;10455485;28;20062;-56
2022/06/18 09:08:29;;;;;;;8.93;8.02;;;;;;;22.39;61.84;97956.44;10454514;28;20024;-56
2022/06/18 09:13:40;;;;;;;8.70;7.65;;;;;;;22.54;59.87;97959.28;10473128;28;20060;-56
2022/06/18 09:18:48;;;;;;;9.55;8.25;;;;;;;22.34;61.87;97958.44;10497102;28;20055;-56
2022/06/18 09:24:04;;;;;;;9.97;8.37;;;;;;;21.99;63.79;97962.63;10495989;28;20054;-56
2022/06/18 09:29:27;;;;;;;10.55;8.50;;;;;;;22.19;62.79;97948.53;10500351;28;20099;-56
2022/06/18 09:34:52;;;;;;;10.40;7.88;;;;;;;22.63;61.96;97950.94;10474971;28;20113;-56
2022/06/18 09:39:57;;;;;;;9.23;7.63;;;;;;;22.77;61.01;97956.47;10461563;28;20052;-56
2022/06/18 09:45:10;;;;;;;9.35;7.90;;;;;;;22.60;63.59;97959.03;10460691;28;20054;-56
2022/06/18 09:50:36;;;;;;;12.55;9.35;;;;;;;22.29;65.86;97960.41;10456303;28;20792;-56
2022/06/18 09:55:45;;;;;;;7.97;7.13;;;;;;;22.35;62.72;97960.13;10463061;28;20085;-56
2022/06/18 10:00:45;;;;;;;11.25;9.10;;;;;;;22.47;61.86;97942.00;10466281;28;20082;-56
2022/06/18 10:11:09;;;;;;;8.40;7.55;;;;;;;22.74;59.68;97946.03;10421216;28;20059;-56
2022/06/18 10:16:33;;;;;;;8.60;7.47;;;;;;;22.65;59.74;97967.59;10436166;28;20064;-56
2022/06/18 10:21:43;;;;;;;7.97;7.18;;;;;;;22.88;59.59;97960.38;10418771;28;20436;-56
2022/06/18 10:27:26;;;;;;;10.45;7.43;;;;;;;23.28;58.59;97961.09;10418631;28;20071;-56
2022/06/18 10:32:39;;;;;;;8.15;7.25;;;;;;;23.43;56.06;97955.06;10361407;28;20130;-56
2022/06/18 10:37:44;;;;;;;8.95;7.25;;;;;;;22.99;55.84;97958.94;10459534;28;20064;-56
2022/06/18 10:42:43;;;;;;;8.35;7.32;;;;;;;22.94;57.59;97952.16;10425735;28;20267;-56
2022/06/18 10:47:46;;;;;;;8.35;6.65;;;;;;;23.00;56.40;97952.72;10446898;28;20739;-56
2022/06/18 10:52:57;;;;;;;11.13;6.55;;;;;;;23.45;55.17;97953.19;10502174;28;20055;-56
2022/06/18 10:58:11;;;;;;;9.98;7.03;;;;;;;23.73;52.99;97957.97;10472294;28;20036;-56
2022/06/18 11:03:22;;;;;;;9.93;6.38;;;;;;;23.42;53.51;97943.59;10459786;28;20059;-56
2022/06/18 11:08:28;;;;;;;8.55;6.57;;;;;;;23.38;57.91;97947.34;10489355;28;20085;-56
2022/06/18 11:13:37;;;;;;;7.90;7.10;;;;;;;23.62;55.11;97944.41;10447751;28;20052;-59
2022/06/18 11:18:46;;;;;;;8.98;6.70;;;;;;;23.39;58.57;97958.78;10465006;28;20432;-59
2022/06/18 11:23:55;;;;;;;9.80;7.40;;;;;;;23.15;62.32;97950.25;10438603;28;20083;-59
2022/06/18 11:29:12;;;;;;;9.23;7.45;;;;;;;23.07;62.01;97958.59;10467421;28;20083;-59
2022/06/18 11:34:23;;;;;;;8.68;7.47;;;;;;;22.83;62.30;97941.22;10438842;28;20098;-59
2022/06/18 11:39:25;;;;;;;10.07;8.52;;;;;;;22.93;57.69;97961.88;10419286;28;20090;-59
2022/06/18 11:44:35;;;;;;;8.50;7.07;;;;;;;22.66;62.44;97944.63;10441818;28;20071;-59
2022/06/18 11:49:46;;;;;;;10.45;7.57;;;;;;;22.28;63.77;97952.56;10458090;28;20059;-56
2022/06/18 11:55:14;;;;;;;7.28;6.57;;;;;;;22.23;63.27;97950.13;10456502;28;20066;-56
2022/06/18 12:00:21;;;;;;;7.90;6.20;;;;;;;22.72;62.32;97958.44;10465861;28;20059;-56
2022/06/18 12:05:28;;;;;;;8.52;6.10;;;;;;;23.04;59.72;97949.91;10460108;28;20068;-56
2022/06/18 12:10:48;;;;;;;8.63;6.72;;;;;;;22.95;59.58;97940.63;10455712;28;20067;-56
2022/06/18 12:16:15;;;;;;;15.50;9.93;;;;;;;22.58;61.54;97955.59;10454614;28;20074;-56
2022/06/18 12:21:27;;;;;;;9.63;6.90;;;;;;;22.47;61.30;97936.72;10484358;28;20055;-56
2022/06/18 12:26:40;;;;;;;8.00;5.70;;;;;;;22.65;60.73;97949.06;10470735;28;20064;-56
2022/06/18 12:31:50;;;;;;;6.90;5.63;;;;;;;22.84;59.96;97946.44;10416866;28;20174;-56
2022/06/18 12:37:41;;;;;;;6.93;5.57;;;;;;;23.30;59.68;97952.13;10414539;28;20071;-56
2022/06/18 12:42:50;;;;;;;7.03;5.45;;;;;;;24.01;57.74;97941.50;10368800;28;20174;-56
2022/06/18 12:48:01;;;;;;;7.03;5.85;;;;;;;24.49;57.39;97921.25;10427036;28;20541;-56
2022/06/18 12:53:03;;;;;;;7.63;5.70;;;;;;;24.84;57.05;97928.22;10454844;28;20067;-56
2022/06/18 12:58:46;;;;;;;8.65;5.60;;;;;;;24.78;56.58;97923.22;10455542;28;20059;-56
2022/06/18 13:04:22;;;;;;;6.38;4.93;;;;;;;24.35;54.89;97918.50;10496156;28;20077;-57
2022/06/18 13:09:41;;;;;;;5.88;4.88;;;;;;;23.49;54.48;97917.72;10465211;28;20056;-56
2022/06/18 13:14:50;;;;;;;5.40;4.53;;;;;;;23.78;53.47;97918.00;10435337;28;20515;-56
2022/06/18 13:19:54;;;;;;;6.38;4.43;;;;;;;24.21;51.79;97894.53;10426470;28;20075;-56
2022/06/18 13:30:34;;;;;;;6.10;4.82;;;;;;;24.77;52.90;97898.50;10438424;28;20084;-57
2022/06/18 13:36:15;;;;;;;4.97;4.30;;;;;;;25.08;48.70;97897.66;10460000;28;20070;-56
2022/06/18 13:41:36;;;;;;;6.57;3.97;;;;;;;24.99;48.41;97897.31;10461047;28;20071;-57
2022/06/18 13:46:43;;;;;;;5.28;4.03;;;;;;;24.92;47.45;97869.41;10462046;28;20051;-57
2022/06/18 13:51:43;;;;;;;5.07;4.55;;;;;;;25.01;44.79;97890.13;10464776;28;20090;-56
2022/06/18 13:57:01;;;;;;;5.88;3.47;;;;;;;25.13;44.30;97893.84;10463076;28;20090;-56
2022/06/18 14:02:04;;;;;;;5.50;3.83;;;;;;;25.21;43.32;97884.50;10433568;28;20761;-56
2022/06/18 14:07:07;;;;;;;3.85;3.25;;;;;;;24.65;45.09;97891.22;10407147;28;20068;-56
2022/06/18 14:12:07;;;;;;;4.20;3.55;;;;;;;24.14;46.47;97883.38;10433662;28;20075;-56
2022/06/18 14:17:07;;;;;;;4.03;3.63;;;;;;;23.92;47.42;97899.56;10420257;28;20064;-56
2022/06/18 14:22:23;;;;;;;4.60;3.67;;;;;;;23.87;47.56;97906.91;10421402;28;20130;-56
2022/06/18 14:27:32;;;;;;;5.78;3.60;;;;;;;23.70;46.75;97898.97;10420457;28;21143;-56
2022/06/18 14:32:42;;;;;;;5.05;3.58;;;;;;;24.00;46.62;97891.22;10418411;28;20052;-56
2022/06/18 14:37:45;;;;;;;3.97;3.30;;;;;;;24.39;44.22;97882.06;10421323;28;20028;-56
2022/06/18 14:43:05;;;;;;;6.70;3.20;;;;;;;24.56;44.37;97883.78;10433918;28;20172;-56
2022/06/18 14:48:17;;;;;;;4.47;3.00;;;;;;;24.39;44.87;97884.72;10425790;28;20067;-56
2022/06/18 14:53:41;;;;;;;7.07;3.22;;;;;;;24.44;45.17;97875.56;10477051;28;20055;-56
2022/06/18 14:58:48;;;;;;;4.25;3.30;;;;;;;24.38;44.39;97870.63;10494891;28;20067;-56
2022/06/18 15:04:17;;;;;;;5.00;3.30;;;;;;;24.24;43.52;97883.78;10456623;28;20072;-57
2022/06/18 15:15:26;;;;;;;4.85;3.75;;;;;;;24.18;45.01;97881.44;10496323;28;20071;-57
2022/06/18 15:20:49;;;;;;;3.35;3.03;;;;;;;24.23;43.31;97876.75;10500005;28;20490;-57
2022/06/18 15:25:48;;;;;;;4.47;3.38;;;;;;;24.05;43.75;97883.84;10425884;28;20060;-57
2022/06/18 15:31:09;;;;;;;3.95;3.00;;;;;;;23.69;43.10;97886.69;10415127;28;20094;-57
2022/06/18 15:36:15;;;;;;;4.18;2.90;;;;;;;23.30;43.19;97890.38;10406920;28;20080;-57
2022/06/18 15:41:14;;;;;;;3.22;2.92;;;;;;;23.14;45.02;97885.88;10425269;28;20067;-57
2022/06/18 15:46:20;;;;;;;4.22;3.47;;;;;;;23.31;46.29;97892.13;10415696;28;20489;-57
2022/06/18 15:51:24;;;;;;;3.97;3.13;;;;;;;23.49;45.47;97885.91;10415123;28;20068;-57
2022/06/18 15:56:28;;;;;;;3.92;3.33;;;;;;;23.56;45.72;97882.03;10421910;28;20086;-57
2022/06/18 16:01:28;;;;;;;3.28;2.97;;;;;;;23.64;45.52;97882.47;10456381;28;20060;-57
2022/06/18 16:06:28;;;;;;;3.17;2.75;;;;;;;23.77;45.55;97888.00;10456383;28;20060;-57
2022/06/18 16:11:31;;;;;;;4.05;2.90;;;;;;;23.97;44.30;97881.63;10426392;28;20526;-57
2022/06/18 16:16:42;;;;;;;3.80;3.10;;;;;;;24.01;44.17;97880.53;10434414;28;20079;-58
2022/06/18 16:21:48;;;;;;;4.70;3.17;;;;;;;23.68;44.24;97877.00;10451389;28;20176;-57
2022/06/18 16:26:51;;;;;;;3.95;3.00;;;;;;;23.41;44.41;97877.47;10456099;28;20466;-57
2022/06/18 16:31:51;;;;;;;4.35;3.20;;;;;;;22.99;44.38;97855.72;10449428;28;20158;-57
2022/06/18 16:37:18;;;;;;;4.63;2.92;;;;;;;23.07;44.47;97886.22;10456277;28;20067;-57
2022/06/18 16:42:52;;;;;;;4.22;3.15;;;;;;;23.22;45.50;97899.56;10462994;28;20074;-57
2022/06/18 16:47:57;;;;;;;4.03;3.05;;;;;;;23.21;45.76;97903.16;10462773;28;20074;-57
2022/06/18 16:52:57;;;;;;;4.68;3.30;;;;;;;23.02;45.53;97903.22;10463558;28;20562;-57
2022/06/18 16:57:56;;;;;;;6.40;3.80;;;;;;;23.12;45.59;97908.91;10460734;28;20079;-57
2022/06/18 17:02:55;;;;;;;6.15;3.47;;;;;;;23.15;46.27;97908.75;10430044;28;20064;-57
2022/06/18 17:07:54;;;;;;;4.95;4.07;;;;;;;23.15;46.30;97914.03;10445321;28;20068;-57
2022/06/18 17:12:54;;;;;;;3.97;2.95;;;;;;;22.98;46.45;97911.38;10442927;28;20040;-57
2022/06/18 17:17:53;;;;;;;4.00;3.17;;;;;;;22.79;46.94;97917.56;10465983;28;20074;-56
2022/06/18 17:22:53;;;;;;;7.95;4.40;;;;;;;22.72;47.29;97916.13;10463775;28;20510;-57
2022/06/18 17:33:10;;;;;;;7.68;4.80;;;;;;;22.50;48.21;97925.97;10461060;28;20577;-57
2022/06/18 17:38:09;;;;;;;5.97;3.85;;;;;;;22.37;48.03;97931.84;10458805;28;20056;-59
2022/06/18 17:43:13;;;;;;;4.97;3.97;;;;;;;22.22;48.58;97927.25;10458046;28;20067;-56
2022/06/18 17:48:16;;;;;;;4.70;3.63;;;;;;;22.09;48.77;97926.94;10457349;28;20063;-57
2022/06/18 17:53:16;;;;;;;8.38;4.82;;;;;;;;;;10440928;28;20078;-57
2022/06/18 17:58:14;;;;;;;7.38;4.47;;;;;;;21.84;50.00;97932.41;10443592;28;20067;-57
2022/06/18 18:03:15;;;;;;;6.07;3.92;;;;;;;21.75;50.48;97932.81;10502705;28;20070;-57
2022/06/18 18:08:15;;;;;;;5.10;4.22;;;;;;;21.68;52.09;97941.94;10481607;28;20454;-57
2022/06/18 18:13:15;;;;;;;4.85;4.05;;;;;;;21.50;52.99;97939.16;10460375;28;20060;-57
2022/06/18 18:18:16;;;;;;;8.43;4.80;;;;;;;21.26;55.33;97950.72;10460281;28;20067;-57
2022/06/18 18:23:15;;;;;;;8.70;5.88;;;;;;;20.90;57.52;97946.00;10443070;28;20510;-57
2022/06/18 18:28:17;;;;;;;6.32;4.95;;;;;;;20.68;59.35;97962.66;10454213;28;20503;-57
2022/06/18 18:33:16;;;;;;;7.57;5.00;;;;;;;20.43;61.22;97960.09;10459643;28;20056;-57
2022/06/18 18:38:15;;;;;;;7.00;4.47;;;;;;;20.02;63.21;97974.75;10459446;28;20082;-59
2022/06/18 18:43:14;;;;;;;6.80;4.65;;;;;;;19.68;63.89;97970.66;10457695;28;20059;-57
2022/06/18 18:48:13;;;;;;;7.53;4.75;;;;;;;19.47;64.97;97987.16;10460085;28;20031;-59
2022/06/18 18:53:12;;;;;;;9.10;5.28;;;;;;;19.33;65.29;97998.97;10461526;28;20070;-56
2022/06/18 18:58:12;;;;;;;7.65;5.00;;;;;;;19.15;65.80;97995.16;10459786;28;20031;-59
2022/06/18 19:03:15;;;;;;;7.10;4.93;;;;;;;19.00;66.73;98009.66;10503410;28;20074;-59
2022/06/18 19:08:14;;;;;;;8.50;5.30;;;;;;;18.86;67.18;98006.59;10503953;28;20063;-59
2022/06/18 19:13:13;;;;;;;7.72;5.63;;;;;;;18.55;68.02;97980.31;10481366;28;20114;-59
2022/06/18 19:18:15;;;;;;;6.85;5.00;;;;;;;18.56;68.53;98024.97;10461040;28;20063;-56
2022/06/18 19:23:15;;;;;;;7.65;5.43;;;;;;;18.39;68.62;98025.44;10452281;28;20075;-56
2022/06/18 19:28:25;;;;;;;7.90;5.28;;;;;;;18.37;69.22;98027.25;10460649;28;20048;-56
2022/06/18 19:33:26;;;;;;;8.38;6.20;;;;;;;18.27;70.34;98027.53;10460484;28;20076;-56
2022/06/18 19:38:28;;;;;;;8.27;5.60;;;;;;;18.09;70.84;98039.44;10459159;28;20415;-57
2022/06/18 19:43:29;;;;;;;7.65;5.53;;;;;;;17.94;70.88;98040.66;10456938;28;20091;-57
2022/06/18 19:48:28;;;;;;;9.30;5.53;;;;;;;17.80;70.98;98042.78;10457688;28;20066;-56
2022/06/18 19:53:27;;;;;;;9.40;5.35;;;;;;;17.66;71.22;98048.34;10429554;28;20079;-56
2022/06/18 19:58:26;;;;;;;8.07;5.30;;;;;;;17.53;70.96;98042.56;10420527;28;20027;-57
2022/06/18 20:03:28;;;;;;;5.68;4.28;;;;;;;17.45;71.23;98052.38;10496639;28;20016;-56
2022/06/18 20:08:27;;;;;;;6.47;5.00;;;;;;;17.28;71.44;98048.38;10469673;28;20063;-56
2022/06/18 20:13:27;;;;;;;6.18;4.63;;;;;;;17.17;71.79;98053.03;10454129;28;20089;-57
2022/06/18 20:18:26;;;;;;;6.13;5.18;;;;;;;17.09;72.55;98050.56;10454587;28;20063;-56
2022/06/18 20:23:26;;;;;;;7.82;5.60;;;;;;;16.90;73.86;98055.34;10444664;28;20040;-56
2022/06/18 20:28:25;;;;;;;8.10;5.78;;;;;;;16.76;74.46;98056.50;10453617;28;20087;-56
2022/06/18 20:33:23;;;;;;;;;;;;;;;16.65;75.09;98064.59;10454347;28;20040;-56
2022/06/18 20:38:23;;;;;;;8.30;4.80;;;;;;;16.43;75.21;98044.06;10452615;28;20727;-56
2022/06/18 20:43:40;;;;;;;7.68;5.18;;;;;;;16.39;74.95;98063.34;10454174;28;20071;-56
2022/06/18 20:48:43;;;;;;;5.47;4.20;;;;;;;16.40;74.98;98070.34;10454885;28;20094;-56
2022/06/18 20:53:42;;;;;;;8.40;6.15;;;;;;;16.37;74.83;98070.41;10435204;28;20495;-56
2022/06/18 20:58:41;;;;;;;12.13;8.55;;;;;;;16.19;78.22;98081.22;10459131;28;20055;-56
2022/06/18 21:03:40;;;;;;;;;;;;;;;16.11;78.86;98077.84;10495490;28;20027;-56
2022/06/18 21:08:39;;;;;;;10.73;7.77;;;;;;;16.03;78.95;98064.91;10464390;28;19955;-56
2022/06/18 21:13:38;;;;;;;;;;;;;;;16.06;79.13;98078.78;10454413;28;20107;-56
2022/06/18 21:18:37;;;;;;;10.27;6.68;;;;;;;16.01;79.28;98069.31;10453848;28;19921;-56
2022/06/18 21:23:37;;;;;;;;;;;;;;;15.95;79.24;98069.41;10453281;28;20070;-59
2022/06/18 21:28:36;;;;;;;9.52;6.00;;;;;;;15.88;79.08;98071.28;10461935;28;19966;-59
2022/06/18 21:38:57;;;;;;;10.57;6.30;;;;;;;15.68;80.00;98058.50;10389731;28;20076;-59
2022/06/18 21:43:56;;;;;;;;;;;;;;;15.66;80.19;98070.75;10420052;28;20090;-59
2022/06/18 21:48:55;;;;;;;7.00;5.28;;;;;;;15.58;79.94;98070.88;10403537;28;19909;-59
2022/06/18 21:53:54;;;;;;;;;;;;;;;15.50;81.44;98070.13;10438206;28;20035;-59
2022/06/18 21:58:53;;;;;;;11.20;7.68;;;;;;;15.22;83.55;98067.06;10471794;28;19912;-59
2022/06/18 22:03:52;;;;;;;10.90;7.25;;;;;;;15.15;84.16;98081.97;10505762;28;20066;-59
2022/06/18 22:08:52;;;;;;;;;;;;;;;15.09;84.08;98087.28;10504363;28;20031;-59
2022/06/18 22:19:08;;;;;;;12.68;8.52;;;;;;;14.87;86.00;98088.44;10462339;28;19966;-58
2022/06/18 22:24:07;;;;;;;;;;;;;;;14.82;86.71;98096.34;10457761;28;20028;-59
2022/06/18 22:29:06;;;;;;;15.63;8.77;;;;;;;14.76;86.38;98084.22;10462558;28;19923;-59
2022/06/18 22:34:05;;;;;;;13.45;8.98;;;;;;;14.79;86.74;98094.63;10462103;28;20085;-59
2022/06/18 22:39:04;;;;;;;;;;;;;;;14.77;87.03;98101.63;10461958;28;20130;-58
2022/06/18 22:44:11;;;;;;;14.68;10.02;;;;;;;14.73;87.29;98107.78;10462662;28;19912;-59
2022/06/18 22:49:16;;;;;;;14.15;9.70;;;;;;;14.72;87.31;98105.19;10459982;28;20067;-59
2022/06/18 22:54:19;;;;;;;20.17;10.25;;;;;;;14.70;87.96;98118.25;10436487;28;20515;-58
2022/06/18 22:59:20;;;;;;;16.67;9.68;;;;;;;14.58;89.35;98118.38;10438549;28;20063;-59
2022/06/18 23:04:19;;;;;;;12.43;9.68;;;;;;;14.49;89.78;98124.56;10481576;28;20062;-58
2022/06/18 23:09:18;;;;;;;;;;;;;;;14.43;90.38;98126.38;10494538;28;20035;-58
2022/06/18 23:14:27;;;;;;;17.33;10.00;;;;;;;14.28;90.70;98109.97;10458079;28;19959;-59
2022/06/18 23:19:29;;;;;;;;;;;;;;;14.28;90.90;98125.63;10455514;28;20083;-59
2022/06/18 23:24:28;;;;;;;12.32;8.32;;;;;;;14.13;92.34;98128.41;10452860;28;20244;-58
2022/06/18 23:29:27;;;;;;;12.27;8.27;;;;;;;13.91;92.75;98126.00;10455978;28;20052;-59
2022/06/18 23:34:31;;;;;;;20.90;8.10;;;;;;;13.81;92.96;98139.13;10456453;28;20036;-58
2022/06/18 23:39:31;;;;;;;11.88;8.20;;;;;;;13.65;93.25;98117.50;10454589;28;20074;-58
2022/06/18 23:44:38;;;;;;;10.77;8.77;;;;;;;13.67;93.00;98129.66;10456549;28;20066;-58
2022/06/18 23:49:37;;;;;;;13.13;9.00;;;;;;;13.63;93.14;98132.28;10456159;28;20078;-59
2022/06/18 23:54:36;;;;;;;14.05;9.32;;;;;;;13.59;93.99;98133.22;10431130;28;20071;-59
2022/06/18 23:59:40;;;;;;;15.48;10.32;;;;;;;13.57;94.40;98134.06;10441076;28;20042;-59
